createdAt,value
2022-07-28T00:01:00.984Z,61.93
2022-07-28T00:03:28.868Z,61.93
2022-07-28T00:05:56.803Z,62.01
2022-07-28T00:08:24.592Z,62.01
2022-07-28T00:10:52.486Z,62.13
2022-07-28T00:13:20.299Z,62.08
2022-07-28T00:15:48.301Z,62.21
2022-07-28T00:18:16.322Z,62.30
2022-07-28T00:20:44.099Z,62.29
2022-07-28T00:23:12.030Z,62.36
2022-07-28T00:25:39.908Z,62.38
2022-07-28T00:28:07.719Z,62.36
2022-07-28T00:30:35.517Z,62.45
2022-07-28T00:33:03.473Z,62.51
2022-07-28T00:35:32.640Z,62.53
2022-07-28T00:38:01.146Z,62.57
2022-07-28T00:40:48.102Z,62.56
2022-07-28T00:43:16.591Z,62.58
2022-07-28T00:45:44.555Z,62.64
2022-07-28T00:48:12.673Z,62.70
2022-07-28T00:50:41.152Z,62.76
2022-07-28T00:53:08.984Z,62.81
2022-07-28T00:56:02.755Z,62.83
2022-07-28T00:58:27.962Z,62.85
2022-07-28T01:00:56.380Z,62.83
2022-07-28T01:03:24.812Z,62.94
2022-07-28T01:05:58.241Z,62.96
2022-07-28T01:08:44.817Z,63.03
2022-07-28T01:11:31.235Z,63.10
2022-07-28T01:14:11.270Z,63.16
2022-07-28T01:16:57.943Z,63.22
2022-07-28T01:19:25.659Z,63.25
2022-07-28T01:21:54.164Z,63.32
2022-07-28T01:24:26.799Z,63.35
2022-07-28T01:26:59.207Z,63.44
2022-07-28T01:29:51.689Z,63.49
2022-07-28T01:32:22.080Z,63.57
2022-07-28T01:35:04.041Z,63.61
2022-07-28T01:37:33.038Z,63.68
2022-07-28T01:40:04.381Z,63.70
2022-07-28T01:42:35.812Z,63.71
2022-07-28T01:45:04.594Z,63.85
2022-07-28T01:47:34.075Z,63.96
2022-07-28T01:50:04.021Z,64.08
2022-07-28T01:52:32.436Z,64.12
2022-07-28T01:55:02.414Z,64.06
2022-07-28T01:57:31.752Z,64.10
2022-07-28T02:00:00.554Z,64.21
2022-07-28T02:02:29.780Z,64.26
2022-07-28T02:04:59.314Z,64.27
2022-07-28T02:07:27.189Z,64.38
2022-07-28T02:09:57.531Z,64.49
2022-07-28T02:12:26.657Z,64.58
2022-07-28T02:14:55.523Z,64.69
2022-07-28T02:17:28.226Z,64.71
2022-07-28T02:19:57.100Z,64.72
2022-07-28T02:22:27.079Z,64.64
2022-07-28T02:24:56.256Z,64.83
2022-07-28T02:27:38.622Z,64.97
2022-07-28T02:30:17.686Z,64.97
2022-07-28T02:32:50.313Z,64.96
2022-07-28T02:35:49.123Z,65.04
2022-07-28T02:38:26.881Z,65.27
2022-07-28T02:40:57.536Z,65.22
2022-07-28T02:43:49.003Z,65.29
2022-07-28T02:46:20.429Z,65.31
2022-07-28T02:48:52.944Z,65.29
2022-07-28T02:51:23.906Z,65.38
2022-07-28T02:53:52.260Z,65.46
2022-07-28T02:56:20.490Z,65.52
2022-07-28T02:58:48.559Z,65.63
2022-07-28T03:01:20.079Z,65.66
2022-07-28T03:03:49.419Z,65.59
2022-07-28T03:06:19.788Z,65.77
2022-07-28T03:08:57.541Z,65.84
2022-07-28T03:11:25.492Z,65.95
2022-07-28T03:13:53.773Z,65.99
2022-07-28T03:16:22.941Z,66.02
2022-07-28T03:18:51.044Z,66.12
2022-07-28T03:21:18.840Z,66.20
2022-07-28T03:23:48.371Z,66.16
2022-07-28T03:26:18.181Z,66.23
2022-07-28T03:28:46.790Z,66.32
2022-07-28T03:31:15.502Z,66.28
2022-07-28T03:33:43.500Z,66.38
2022-07-28T03:36:14.756Z,66.39
2022-07-28T03:38:46.952Z,66.44
2022-07-28T03:41:15.266Z,66.53
2022-07-28T03:43:43.610Z,66.60
2022-07-28T03:46:13.602Z,66.51
2022-07-28T03:48:41.580Z,66.60
2022-07-28T03:51:09.409Z,66.64
2022-07-28T03:53:37.835Z,66.54
2022-07-28T03:56:06.504Z,66.60
2022-07-28T03:58:34.415Z,66.72
2022-07-28T04:01:02.431Z,66.64
2022-07-28T04:03:43.251Z,66.75
2022-07-28T04:06:13.124Z,66.75
2022-07-28T04:08:42.909Z,66.74
2022-07-28T04:11:10.858Z,66.74
2022-07-28T04:13:38.841Z,66.71
2022-07-28T04:16:07.402Z,66.57
2022-07-28T04:18:35.767Z,66.69
2022-07-28T04:21:04.154Z,66.65
2022-07-28T04:23:33.088Z,66.69
2022-07-28T04:26:00.847Z,66.66
2022-07-28T04:28:28.646Z,66.71
2022-07-28T04:30:56.478Z,66.55
2022-07-28T04:33:24.953Z,66.50
2022-07-28T04:35:53.307Z,66.46
2022-07-28T04:38:21.133Z,66.38
2022-07-28T04:40:49.289Z,66.34
2022-07-28T04:43:17.246Z,66.22
2022-07-28T04:45:53.757Z,66.23
2022-07-28T04:48:24.042Z,66.18
2022-07-28T04:50:53.253Z,66.14
2022-07-28T04:53:22.507Z,65.88
2022-07-28T04:55:53.505Z,65.85
2022-07-28T04:58:23.733Z,65.67
2022-07-28T05:00:52.053Z,65.70
2022-07-28T05:03:20.779Z,65.57
2022-07-28T05:05:54.923Z,65.51
2022-07-28T05:08:25.674Z,65.46
2022-07-28T05:10:55.762Z,65.26
2022-07-28T05:13:24.088Z,65.18
2022-07-28T05:15:51.850Z,64.95
2022-07-28T05:18:19.599Z,64.92
2022-07-28T05:20:47.399Z,64.71
2022-07-28T05:23:15.826Z,64.51
2022-07-28T05:25:43.607Z,64.43
2022-07-28T05:28:11.583Z,64.30
2022-07-28T05:30:39.732Z,64.18
2022-07-28T05:33:07.760Z,63.99
2022-07-28T05:35:35.763Z,63.91
2022-07-28T05:38:06.391Z,63.69
2022-07-28T05:40:38.378Z,63.51
2022-07-28T05:43:06.799Z,63.46
2022-07-28T05:45:34.936Z,63.35
2022-07-28T05:48:02.753Z,63.14
2022-07-28T05:50:30.653Z,62.69
2022-07-28T05:52:58.400Z,62.70
2022-07-28T05:55:26.394Z,62.66
2022-07-28T05:57:54.486Z,62.20
2022-07-28T06:00:23.181Z,61.92
2022-07-28T06:02:51.562Z,61.72
2022-07-28T06:05:21.313Z,61.57
2022-07-28T06:07:50.937Z,61.24
2022-07-28T06:10:22.686Z,60.94
2022-07-28T06:12:55.472Z,60.72
2022-07-28T06:15:28.129Z,60.88
2022-07-28T06:17:56.134Z,60.36
2022-07-28T06:20:25.119Z,60.07
2022-07-28T06:22:55.116Z,59.67
2022-07-28T06:25:25.814Z,59.40
2022-07-28T06:27:56.211Z,58.87
2022-07-28T06:30:24.401Z,58.47
2022-07-28T06:32:52.373Z,58.12
2022-07-28T06:35:20.470Z,57.93
2022-07-28T06:37:50.933Z,57.49
2022-07-28T06:40:20.146Z,57.21
2022-07-28T06:42:47.860Z,56.76
2022-07-28T06:45:20.724Z,56.58
2022-07-28T06:47:53.749Z,56.23
2022-07-28T06:50:26.083Z,55.81
2022-07-28T06:52:56.577Z,55.41
2022-07-28T06:55:24.842Z,55.20
2022-07-28T06:57:53.069Z,54.88
2022-07-28T07:00:20.906Z,54.26
2022-07-28T07:02:49.629Z,53.62
2022-07-28T07:05:17.805Z,53.58
2022-07-28T07:07:45.614Z,53.28
2022-07-28T07:10:13.439Z,52.95
2022-07-28T07:12:41.388Z,52.68
2022-07-28T07:15:10.345Z,52.11
2022-07-28T07:17:38.229Z,52.08
2022-07-28T07:20:06.950Z,51.70
2022-07-28T07:22:35.645Z,51.41
2022-07-28T07:25:13.769Z,51.27
2022-07-28T07:27:41.898Z,50.55
2022-07-28T07:30:10.929Z,50.31
2022-07-28T07:32:38.665Z,50.18
2022-07-28T07:35:07.245Z,49.59
2022-07-28T07:37:35.117Z,49.52
2022-07-28T07:40:05.460Z,49.21
2022-07-28T07:42:33.315Z,49.28
2022-07-28T07:45:01.504Z,48.77
2022-07-28T07:47:29.346Z,48.34
2022-07-28T07:49:57.345Z,48.18
2022-07-28T07:52:25.180Z,47.73
2022-07-28T07:54:53.043Z,47.20
2022-07-28T07:57:20.849Z,47.17
2022-07-28T07:59:49.002Z,47.02
2022-07-28T08:02:17.014Z,46.64
2022-07-28T08:04:45.002Z,46.47
2022-07-28T08:07:15.850Z,46.11
2022-07-28T08:09:43.700Z,45.88
2022-07-28T08:12:11.490Z,45.54
2022-07-28T08:14:39.848Z,45.42
2022-07-28T08:17:09.208Z,45.07
2022-07-28T08:19:37.000Z,44.72
2022-07-28T08:22:05.026Z,44.74
2022-07-28T08:24:34.266Z,44.32
2022-07-28T08:27:03.547Z,44.14
2022-07-28T08:29:31.383Z,43.76
2022-07-28T08:32:01.354Z,43.38
2022-07-28T08:34:33.876Z,43.17
2022-07-28T08:37:03.858Z,43.30
2022-07-28T08:39:33.173Z,42.83
2022-07-28T08:42:19.261Z,42.72
2022-07-28T08:44:50.135Z,42.34
2022-07-28T08:47:18.251Z,42.38
2022-07-28T08:49:48.001Z,41.96
2022-07-28T08:52:16.944Z,41.71
2022-07-28T08:54:45.710Z,41.68
2022-07-28T08:57:18.158Z,41.58
2022-07-28T08:59:47.647Z,41.37
2022-07-28T09:02:16.627Z,41.44
2022-07-28T09:04:46.756Z,41.09
2022-07-28T09:07:15.247Z,41.04
2022-07-28T09:09:43.873Z,40.88
2022-07-28T09:12:11.760Z,40.68
2022-07-28T09:14:39.775Z,40.92
2022-07-28T09:17:07.716Z,41.41
2022-07-28T09:19:37.684Z,39.51
2022-07-28T09:22:06.932Z,37.02
2022-07-28T09:24:39.858Z,34.74
2022-07-28T09:27:09.771Z,33.29
2022-07-28T09:29:39.276Z,32.02
2022-07-28T09:32:08.340Z,29.88
2022-07-28T09:34:44.482Z,27.91
2022-07-28T09:37:27.140Z,26.29
2022-07-28T09:40:00.311Z,24.13
2022-07-28T09:42:45.758Z,22.18
2022-07-28T09:45:22.956Z,20.17
2022-07-28T09:48:11.991Z,18.31
2022-07-28T09:50:41.930Z,16.70
2022-07-28T09:53:23.810Z,15.50
2022-07-28T09:56:00.631Z,14.06
2022-07-28T09:58:30.629Z,13.31
2022-07-28T10:01:05.548Z,12.27
2022-07-28T10:03:36.985Z,10.80
2022-07-28T10:06:08.205Z,9.78
2022-07-28T10:08:47.519Z,9.09
2022-07-28T10:11:17.511Z,8.56
2022-07-28T10:13:58.590Z,8.07
2022-07-28T10:16:28.584Z,7.78
2022-07-28T10:18:57.813Z,7.37
2022-07-28T10:21:27.125Z,6.96
2022-07-28T10:23:57.471Z,6.70
2022-07-28T10:26:30.805Z,6.80
2022-07-28T10:29:00.584Z,6.67
2022-07-28T10:31:40.613Z,6.38
2022-07-28T10:34:15.793Z,5.86
2022-07-28T10:36:44.879Z,5.78
2022-07-28T10:39:19.626Z,5.71
2022-07-28T10:41:47.851Z,5.62
2022-07-28T10:44:19.740Z,5.66
2022-07-28T10:46:47.949Z,5.22
2022-07-28T10:49:15.976Z,5.48
2022-07-28T10:52:06.572Z,5.19
2022-07-28T10:54:42.580Z,4.97
2022-07-28T10:57:11.943Z,4.73
2022-07-28T10:59:45.922Z,4.79
2022-07-28T11:02:53.368Z,4.61
2022-07-28T11:05:40.972Z,4.70
2022-07-28T11:08:15.963Z,4.87
2022-07-28T11:10:52.094Z,5.09
2022-07-28T11:13:33.074Z,4.98
2022-07-28T11:16:22.664Z,5.64
2022-07-28T11:19:28.672Z,6.11
2022-07-28T11:22:22.327Z,6.94
2022-07-28T11:25:19.483Z,7.64
2022-07-28T11:27:52.085Z,8.45
2022-07-28T11:30:27.652Z,8.84
2022-07-28T11:32:55.713Z,9.54
2022-07-28T11:35:28.067Z,9.80
2022-07-28T11:38:02.093Z,10.79
2022-07-28T11:40:46.923Z,11.42
2022-07-28T11:43:26.614Z,12.00
2022-07-28T11:46:10.253Z,12.95
2022-07-28T11:48:42.355Z,13.59
2022-07-28T11:51:11.444Z,14.19
2022-07-28T11:53:50.912Z,14.76
2022-07-28T11:56:37.218Z,15.14
2022-07-28T11:59:06.667Z,15.80
2022-07-28T12:01:36.993Z,16.45
2022-07-28T12:04:15.291Z,17.38
2022-07-28T12:06:49.515Z,17.58
2022-07-28T12:09:25.273Z,17.81
2022-07-28T12:11:55.888Z,18.11
2022-07-28T12:14:24.389Z,18.48
2022-07-28T12:16:53.277Z,19.12
2022-07-28T12:19:22.512Z,19.38
2022-07-28T12:21:55.187Z,19.76
2022-07-28T12:24:32.243Z,20.38
2022-07-28T12:27:15.119Z,20.39
2022-07-28T12:29:43.738Z,20.74
2022-07-28T12:32:13.027Z,20.75
2022-07-28T12:34:42.290Z,21.00
2022-07-28T12:37:10.289Z,21.26
2022-07-28T12:39:43.267Z,21.44
2022-07-28T12:42:13.653Z,21.51
2022-07-28T12:44:43.042Z,21.78
2022-07-28T12:47:12.680Z,21.92
2022-07-28T12:49:42.855Z,22.32
2022-07-28T12:52:23.729Z,22.34
2022-07-28T12:54:55.785Z,22.29
2022-07-28T12:57:49.349Z,22.43
2022-07-28T13:00:21.053Z,22.86
2022-07-28T13:02:50.932Z,23.06
2022-07-28T13:05:30.831Z,23.34
2022-07-28T13:08:02.266Z,23.26
2022-07-28T13:10:31.544Z,23.29
2022-07-28T13:13:08.655Z,23.50
2022-07-28T13:15:36.633Z,23.55
2022-07-28T13:18:05.198Z,23.75
2022-07-28T13:20:47.760Z,24.19
2022-07-28T13:23:16.159Z,24.37
2022-07-28T13:25:44.114Z,24.72
2022-07-28T13:28:27.998Z,24.67
2022-07-28T13:30:55.757Z,24.83
2022-07-28T13:33:23.795Z,25.01
2022-07-28T13:35:53.543Z,25.07
2022-07-28T13:38:21.628Z,25.42
2022-07-28T13:40:49.515Z,25.42
2022-07-28T13:43:18.432Z,25.70
2022-07-28T13:45:48.481Z,25.80
2022-07-28T13:48:16.314Z,25.80
2022-07-28T13:50:44.226Z,25.97
2022-07-28T13:53:31.562Z,26.00
2022-07-28T13:55:59.632Z,26.19
2022-07-28T13:58:28.007Z,26.17
2022-07-28T14:00:58.233Z,26.38
2022-07-28T14:03:27.109Z,26.50
2022-07-28T14:05:55.309Z,26.51
2022-07-28T14:08:25.368Z,26.70
2022-07-28T14:10:56.735Z,26.70
2022-07-28T14:13:28.326Z,26.74
2022-07-28T14:16:02.669Z,26.77
2022-07-28T14:18:34.766Z,27.06
2022-07-28T14:21:04.727Z,27.34
2022-07-28T14:23:32.586Z,27.57
2022-07-28T14:26:25.170Z,27.61
2022-07-28T14:28:48.964Z,27.68
2022-07-28T14:31:18.254Z,27.93
2022-07-28T14:33:52.276Z,27.87
2022-07-28T14:36:22.351Z,28.18
2022-07-28T14:38:54.489Z,28.32
2022-07-28T14:41:23.551Z,28.18
2022-07-28T14:43:51.773Z,28.25
2022-07-28T14:46:21.812Z,28.30
2022-07-28T14:48:50.130Z,28.03
2022-07-28T14:51:18.107Z,27.79
2022-07-28T14:53:51.633Z,27.75
2022-07-28T14:56:19.945Z,27.57
2022-07-28T14:58:47.859Z,27.27
2022-07-28T15:01:15.629Z,27.52
2022-07-28T15:03:43.712Z,27.28
2022-07-28T15:06:11.639Z,27.28
2022-07-28T15:08:39.493Z,27.32
2022-07-28T15:11:08.151Z,27.66
2022-07-28T15:13:36.117Z,27.64
2022-07-28T15:16:04.319Z,27.62
2022-07-28T15:18:32.176Z,27.55
2022-07-28T15:21:00.545Z,27.74
2022-07-28T15:23:28.375Z,27.70
2022-07-28T15:25:56.307Z,27.66
2022-07-28T15:28:24.206Z,27.89
2022-07-28T15:30:52.928Z,28.09
2022-07-28T15:33:21.265Z,28.07
2022-07-28T15:35:59.419Z,28.39
2022-07-28T15:38:29.241Z,28.52
2022-07-28T15:41:00.490Z,28.42
2022-07-28T15:43:29.113Z,28.48
2022-07-28T15:45:57.490Z,28.60
2022-07-28T15:48:25.570Z,28.63
2022-07-28T15:50:53.526Z,28.74
2022-07-28T15:53:23.103Z,28.85
2022-07-28T15:55:51.973Z,28.81
2022-07-28T15:58:21.766Z,28.94
2022-07-28T16:00:50.662Z,29.00
2022-07-28T16:03:18.653Z,29.23
2022-07-28T16:05:49.649Z,29.27
2022-07-28T16:08:18.808Z,29.36
2022-07-28T16:10:53.106Z,29.40
2022-07-28T16:13:36.394Z,29.65
2022-07-28T16:16:11.182Z,29.70
2022-07-28T16:18:42.109Z,30.10
2022-07-28T16:21:10.732Z,30.32
2022-07-28T16:23:38.781Z,30.60
2022-07-28T16:26:09.438Z,30.94
2022-07-28T16:28:37.521Z,31.04
2022-07-28T16:31:05.771Z,31.34
2022-07-28T16:33:34.113Z,31.50
2022-07-28T16:36:02.663Z,31.71
2022-07-28T16:38:30.717Z,31.80
2022-07-28T16:40:58.979Z,32.00
2022-07-28T16:43:26.763Z,32.15
2022-07-28T16:45:54.512Z,32.48
2022-07-28T16:48:22.327Z,32.46
2022-07-28T16:50:50.249Z,32.62
2022-07-28T16:53:18.679Z,32.78
2022-07-28T16:55:48.274Z,32.97
2022-07-28T16:58:18.114Z,33.19
2022-07-28T17:00:45.971Z,33.37
2022-07-28T17:03:14.116Z,33.66
2022-07-28T17:05:42.104Z,33.89
2022-07-28T17:08:10.143Z,33.73
2022-07-28T17:10:38.094Z,33.96
2022-07-28T17:13:06.095Z,34.17
2022-07-28T17:15:34.056Z,34.56
2022-07-28T17:18:02.725Z,34.60
2022-07-28T17:20:30.509Z,34.90
2022-07-28T17:22:58.730Z,35.28
2022-07-28T17:28:14.653Z,35.79
2022-07-28T17:30:42.617Z,35.95
2022-07-28T17:33:10.591Z,36.43
2022-07-28T17:35:40.114Z,36.54
2022-07-28T17:38:09.525Z,36.63
2022-07-28T17:40:38.176Z,36.51
2022-07-28T17:43:06.399Z,36.76
2022-07-28T17:45:34.680Z,36.91
2022-07-28T17:48:02.527Z,37.25
2022-07-28T17:50:30.633Z,37.56
2022-07-28T17:52:58.562Z,38.08
2022-07-28T17:55:57.495Z,38.50
2022-07-28T17:58:29.703Z,38.72
2022-07-28T18:01:11.091Z,39.01
2022-07-28T18:03:58.831Z,39.39
2022-07-28T18:06:34.908Z,40.22
2022-07-28T18:09:12.257Z,40.30
2022-07-28T18:11:57.961Z,40.71
2022-07-28T18:14:28.424Z,40.96
2022-07-28T18:16:56.610Z,41.30
2022-07-28T18:19:25.725Z,41.72
2022-07-28T18:21:54.035Z,41.88
2022-07-28T18:24:22.663Z,42.30
2022-07-28T18:26:52.123Z,42.69
2022-07-28T18:29:21.462Z,42.87
2022-07-28T18:31:52.922Z,43.32
2022-07-28T18:34:23.473Z,43.61
2022-07-28T18:36:53.983Z,43.78
2022-07-28T18:39:22.355Z,44.07
2022-07-28T18:41:50.291Z,44.34
2022-07-28T18:44:19.784Z,44.63
2022-07-28T18:46:48.449Z,44.86
2022-07-28T18:49:16.672Z,45.18
2022-07-28T18:51:45.673Z,45.66
2022-07-28T18:54:18.783Z,46.07
2022-07-28T18:56:50.032Z,46.33
2022-07-28T18:59:17.986Z,46.67
2022-07-28T19:01:45.883Z,46.81
2022-07-28T19:04:14.173Z,47.05
2022-07-28T19:06:42.550Z,47.26
2022-07-28T19:09:10.274Z,47.49
2022-07-28T19:11:42.395Z,47.76
2022-07-28T19:14:15.128Z,48.06
2022-07-28T19:16:43.898Z,48.44
2022-07-28T19:19:13.400Z,48.66
2022-07-28T19:21:43.250Z,48.81
2022-07-28T19:24:16.014Z,49.09
2022-07-28T19:26:46.576Z,49.23
2022-07-28T19:29:14.562Z,49.49
2022-07-28T19:31:42.692Z,49.65
2022-07-28T19:34:10.701Z,49.75
2022-07-28T19:36:41.763Z,50.05
2022-07-28T19:39:12.164Z,50.21
2022-07-28T19:41:40.701Z,50.44
2022-07-28T19:44:08.721Z,50.61
2022-07-28T19:46:39.410Z,50.85
2022-07-28T19:49:09.219Z,51.02
2022-07-28T19:51:38.335Z,51.29
2022-07-28T19:54:06.360Z,51.42
2022-07-28T19:56:34.324Z,51.53
2022-07-28T19:59:02.722Z,51.60
2022-07-28T20:01:31.234Z,51.90
2022-07-28T20:04:03.132Z,52.08
2022-07-28T20:06:33.403Z,52.24
2022-07-28T20:09:02.127Z,52.30
2022-07-28T20:11:31.442Z,52.56
2022-07-28T20:14:00.081Z,52.67
2022-07-28T20:16:28.014Z,52.84
2022-07-28T20:18:57.147Z,53.10
2022-07-28T20:21:26.475Z,53.30
2022-07-28T20:23:55.630Z,53.41
2022-07-28T20:26:26.472Z,53.63
2022-07-28T20:28:56.383Z,53.76
2022-07-28T20:31:24.675Z,53.98
2022-07-28T20:33:53.166Z,54.17
2022-07-28T20:36:23.851Z,54.41
2022-07-28T20:38:56.280Z,54.52
2022-07-28T20:41:24.453Z,54.64
2022-07-28T20:44:18.283Z,54.72
2022-07-28T20:46:40.400Z,54.97
2022-07-28T20:49:08.863Z,55.11
2022-07-28T20:51:36.719Z,55.22
2022-07-28T20:54:04.467Z,55.30
2022-07-28T20:56:32.329Z,55.46
2022-07-28T20:59:06.510Z,55.72
2022-07-28T21:01:34.852Z,55.88
2022-07-28T21:04:03.053Z,55.96
2022-07-28T21:06:31.822Z,56.16
2022-07-28T21:09:01.968Z,56.26
2022-07-28T21:11:35.530Z,56.39
2022-07-28T21:14:04.591Z,56.56
2022-07-28T21:16:32.477Z,56.69
2022-07-28T21:19:02.151Z,56.88
2022-07-28T21:21:30.388Z,57.00
2022-07-28T21:23:58.216Z,57.18
2022-07-28T21:26:26.515Z,57.24
2022-07-28T21:32:02.153Z,57.59
2022-07-28T21:34:34.451Z,57.67
2022-07-28T21:37:03.436Z,57.87
2022-07-28T21:39:31.695Z,57.95
2022-07-28T21:42:00.182Z,58.11
2022-07-28T21:44:27.937Z,58.11
2022-07-28T21:46:55.674Z,58.26
2022-07-28T21:49:23.713Z,58.20
2022-07-28T21:51:51.741Z,58.41
2022-07-28T21:54:20.559Z,58.56
2022-07-28T21:56:48.675Z,58.65
2022-07-28T21:59:16.571Z,58.68
2022-07-28T22:01:45.100Z,58.85
2022-07-28T22:04:13.523Z,58.94
2022-07-28T22:06:46.064Z,59.12
2022-07-28T22:09:15.176Z,59.22
2022-07-28T22:11:43.181Z,59.25
2022-07-28T22:14:11.133Z,59.38
2022-07-28T22:16:39.389Z,59.38
2022-07-28T22:19:07.267Z,59.57
2022-07-28T22:21:35.222Z,59.61
2022-07-28T22:24:03.118Z,59.73
2022-07-28T22:26:30.970Z,59.85
2022-07-28T22:28:58.791Z,59.98
2022-07-28T22:31:26.967Z,60.07
2022-07-28T22:33:54.768Z,60.22
2022-07-28T22:36:22.858Z,60.32
2022-07-28T22:38:50.870Z,60.42
2022-07-28T22:41:18.732Z,60.38
2022-07-28T22:43:46.605Z,60.53
2022-07-28T22:46:14.562Z,60.61
2022-07-28T22:48:42.671Z,60.77
2022-07-28T22:51:14.891Z,60.78
2022-07-28T22:53:42.747Z,60.79
2022-07-28T22:56:11.336Z,60.92
2022-07-28T22:58:40.184Z,60.98
2022-07-28T23:01:08.834Z,61.03
2022-07-28T23:03:37.093Z,61.14
2022-07-28T23:06:06.159Z,61.23
2022-07-28T23:08:34.519Z,61.36
2022-07-28T23:11:02.379Z,61.49
2022-07-28T23:13:30.198Z,61.51
2022-07-28T23:15:58.453Z,61.62
2022-07-28T23:18:26.476Z,61.62
2022-07-28T23:20:54.331Z,61.69
2022-07-28T23:23:22.286Z,61.71
2022-07-28T23:25:50.170Z,61.81
2022-07-28T23:28:18.027Z,61.93
2022-07-28T23:30:47.443Z,61.90
2022-07-28T23:33:56.130Z,62.12
2022-07-28T23:36:05.728Z,62.23
2022-07-28T23:38:33.675Z,62.39
2022-07-28T23:41:01.469Z,62.39
2022-07-28T23:43:30.614Z,62.48
2022-07-28T23:45:58.393Z,62.46
2022-07-28T23:48:26.399Z,62.44
2022-07-28T23:50:54.210Z,62.49
2022-07-28T23:53:22.051Z,62.55
2022-07-28T23:55:50.007Z,62.77
2022-07-28T23:58:17.840Z,62.82
